sensor_id;sensor_type;location;lat;lon;timestamp;temperature;humidity
60723;DHT22;46574;52.818;6.516;2023-08-24T00:01:30;16.60;99.90
60723;DHT22;46574;52.818;6.516;2023-08-24T00:03:56;16.70;99.90
60723;DHT22;46574;52.818;6.516;2023-08-24T00:06:21;16.70;99.90
60723;DHT22;46574;52.818;6.516;2023-08-24T00:08:47;16.60;99.90
60723;DHT22;46574;52.818;6.516;2023-08-24T00:11:13;16.60;99.90
60723;DHT22;46574;52.818;6.516;2023-08-24T00:13:44;16.50;99.90
60723;DHT22;46574;52.818;6.516;2023-08-24T00:16:15;16.50;99.90
60723;DHT22;46574;52.818;6.516;2023-08-24T00:18:41;16.40;99.90
60723;DHT22;46574;52.818;6.516;2023-08-24T00:21:08;16.30;99.90
60723;DHT22;46574;52.818;6.516;2023-08-24T00:23:33;16.30;99.90
60723;DHT22;46574;52.818;6.516;2023-08-24T00:25:59;16.30;99.90
60723;DHT22;46574;52.818;6.516;2023-08-24T00:28:25;16.30;99.90
60723;DHT22;46574;52.818;6.516;2023-08-24T00:30:51;16.30;99.90
60723;DHT22;46574;52.818;6.516;2023-08-24T00:33:17;16.40;99.90
60723;DHT22;46574;52.818;6.516;2023-08-24T00:35:43;16.30;99.90
60723;DHT22;46574;52.818;6.516;2023-08-24T00:38:09;16.30;99.90
60723;DHT22;46574;52.818;6.516;2023-08-24T00:40:35;16.30;99.90
60723;DHT22;46574;52.818;6.516;2023-08-24T00:43:00;16.30;99.90
60723;DHT22;46574;52.818;6.516;2023-08-24T00:45:26;16.30;99.90
60723;DHT22;46574;52.818;6.516;2023-08-24T00:47:52;16.30;99.90
60723;DHT22;46574;52.818;6.516;2023-08-24T00:50:18;16.30;99.90
60723;DHT22;46574;52.818;6.516;2023-08-24T00:52:45;16.30;99.90
60723;DHT22;46574;52.818;6.516;2023-08-24T00:55:13;16.20;99.90
60723;DHT22;46574;52.818;6.516;2023-08-24T00:57:40;16.20;99.90
60723;DHT22;46574;52.818;6.516;2023-08-24T01:00:09;16.30;99.90
60723;DHT22;46574;52.818;6.516;2023-08-24T01:02:38;16.30;99.90
60723;DHT22;46574;52.818;6.516;2023-08-24T01:05:04;16.30;99.90
60723;DHT22;46574;52.818;6.516;2023-08-24T01:07:31;16.30;99.90
60723;DHT22;46574;52.818;6.516;2023-08-24T01:09:57;16.30;99.90
60723;DHT22;46574;52.818;6.516;2023-08-24T01:15:09;16.30;99.90
60723;DHT22;46574;52.818;6.516;2023-08-24T01:17:39;16.30;99.90
60723;DHT22;46574;52.818;6.516;2023-08-24T01:20:07;16.20;99.90
60723;DHT22;46574;52.818;6.516;2023-08-24T01:22:44;16.20;99.90
60723;DHT22;46574;52.818;6.516;2023-08-24T01:25:38;16.30;99.90
60723;DHT22;46574;52.818;6.516;2023-08-24T01:28:07;16.30;99.90
60723;DHT22;46574;52.818;6.516;2023-08-24T01:30:34;16.30;99.90
60723;DHT22;46574;52.818;6.516;2023-08-24T01:33:03;16.40;99.90
60723;DHT22;46574;52.818;6.516;2023-08-24T01:35:30;16.40;99.90
60723;DHT22;46574;52.818;6.516;2023-08-24T01:37:58;16.40;99.90
60723;DHT22;46574;52.818;6.516;2023-08-24T01:40:39;16.50;99.90
60723;DHT22;46574;52.818;6.516;2023-08-24T01:43:10;16.50;99.90
60723;DHT22;46574;52.818;6.516;2023-08-24T01:45:35;16.50;99.90
60723;DHT22;46574;52.818;6.516;2023-08-24T01:48:03;16.50;99.90
60723;DHT22;46574;52.818;6.516;2023-08-24T01:50:29;16.60;99.90
60723;DHT22;46574;52.818;6.516;2023-08-24T01:52:56;16.60;99.90
60723;DHT22;46574;52.818;6.516;2023-08-24T01:55:23;16.60;99.90
60723;DHT22;46574;52.818;6.516;2023-08-24T01:57:49;16.60;99.90
60723;DHT22;46574;52.818;6.516;2023-08-24T02:00:15;16.60;99.90
60723;DHT22;46574;52.818;6.516;2023-08-24T02:02:43;16.60;99.90
60723;DHT22;46574;52.818;6.516;2023-08-24T02:05:09;16.70;99.90
60723;DHT22;46574;52.818;6.516;2023-08-24T02:07:35;16.70;99.90
60723;DHT22;46574;52.818;6.516;2023-08-24T02:10:01;16.70;99.90
60723;DHT22;46574;52.818;6.516;2023-08-24T02:12:27;16.70;99.90
60723;DHT22;46574;52.818;6.516;2023-08-24T02:14:53;16.60;99.90
60723;DHT22;46574;52.818;6.516;2023-08-24T02:17:18;16.70;99.90
60723;DHT22;46574;52.818;6.516;2023-08-24T02:19:44;16.70;99.90
60723;DHT22;46574;52.818;6.516;2023-08-24T02:22:09;16.70;99.90
60723;DHT22;46574;52.818;6.516;2023-08-24T02:24:35;16.70;99.90
60723;DHT22;46574;52.818;6.516;2023-08-24T02:27:01;16.70;99.90
60723;DHT22;46574;52.818;6.516;2023-08-24T02:29:26;16.70;99.90
60723;DHT22;46574;52.818;6.516;2023-08-24T02:31:53;16.70;99.90
60723;DHT22;46574;52.818;6.516;2023-08-24T02:34:18;16.60;99.90
60723;DHT22;46574;52.818;6.516;2023-08-24T02:36:45;16.60;99.90
60723;DHT22;46574;52.818;6.516;2023-08-24T02:39:10;16.60;99.90
60723;DHT22;46574;52.818;6.516;2023-08-24T02:41:36;16.60;99.90
60723;DHT22;46574;52.818;6.516;2023-08-24T02:44:02;16.60;99.90
60723;DHT22;46574;52.818;6.516;2023-08-24T02:46:28;16.60;99.90
60723;DHT22;46574;52.818;6.516;2023-08-24T02:48:53;16.60;99.90
60723;DHT22;46574;52.818;6.516;2023-08-24T02:51:22;16.60;99.90
60723;DHT22;46574;52.818;6.516;2023-08-24T02:53:48;16.70;99.90
60723;DHT22;46574;52.818;6.516;2023-08-24T02:56:14;16.60;99.90
60723;DHT22;46574;52.818;6.516;2023-08-24T02:58:40;16.70;99.90
60723;DHT22;46574;52.818;6.516;2023-08-24T03:01:06;16.70;99.90
60723;DHT22;46574;52.818;6.516;2023-08-24T03:03:35;16.60;99.90
60723;DHT22;46574;52.818;6.516;2023-08-24T03:06:03;16.60;99.90
60723;DHT22;46574;52.818;6.516;2023-08-24T03:08:30;16.60;99.90
60723;DHT22;46574;52.818;6.516;2023-08-24T03:10:57;16.60;99.90
60723;DHT22;46574;52.818;6.516;2023-08-24T03:13:23;16.50;99.90
60723;DHT22;46574;52.818;6.516;2023-08-24T03:15:49;16.50;99.90
60723;DHT22;46574;52.818;6.516;2023-08-24T03:18:16;16.50;99.90
60723;DHT22;46574;52.818;6.516;2023-08-24T03:20:43;16.50;99.90
60723;DHT22;46574;52.818;6.516;2023-08-24T03:23:08;16.50;99.90
60723;DHT22;46574;52.818;6.516;2023-08-24T03:25:39;16.40;99.90
60723;DHT22;46574;52.818;6.516;2023-08-24T03:28:06;16.40;99.90
60723;DHT22;46574;52.818;6.516;2023-08-24T03:30:37;16.40;99.90
60723;DHT22;46574;52.818;6.516;2023-08-24T03:33:03;16.40;99.90
60723;DHT22;46574;52.818;6.516;2023-08-24T03:35:31;16.30;99.90
60723;DHT22;46574;52.818;6.516;2023-08-24T03:37:57;16.30;99.90
60723;DHT22;46574;52.818;6.516;2023-08-24T03:40:22;16.30;99.90
60723;DHT22;46574;52.818;6.516;2023-08-24T03:42:48;16.20;99.90
60723;DHT22;46574;52.818;6.516;2023-08-24T03:45:14;16.20;99.90
60723;DHT22;46574;52.818;6.516;2023-08-24T03:47:40;16.20;99.90
60723;DHT22;46574;52.818;6.516;2023-08-24T03:50:06;16.10;99.90
60723;DHT22;46574;52.818;6.516;2023-08-24T03:52:32;16.20;99.90
60723;DHT22;46574;52.818;6.516;2023-08-24T03:54:57;16.20;99.90
60723;DHT22;46574;52.818;6.516;2023-08-24T03:57:23;16.10;99.90
60723;DHT22;46574;52.818;6.516;2023-08-24T03:59:49;16.10;99.90
60723;DHT22;46574;52.818;6.516;2023-08-24T04:02:14;16.00;99.90
60723;DHT22;46574;52.818;6.516;2023-08-24T04:04:40;16.10;99.90
60723;DHT22;46574;52.818;6.516;2023-08-24T04:07:06;16.00;99.90
60723;DHT22;46574;52.818;6.516;2023-08-24T04:09:32;15.90;99.90
60723;DHT22;46574;52.818;6.516;2023-08-24T04:11:58;15.90;99.90
60723;DHT22;46574;52.818;6.516;2023-08-24T04:14:23;15.90;99.90
60723;DHT22;46574;52.818;6.516;2023-08-24T04:16:49;15.80;99.90
60723;DHT22;46574;52.818;6.516;2023-08-24T04:19:14;15.70;99.90
60723;DHT22;46574;52.818;6.516;2023-08-24T04:21:40;15.70;99.90
60723;DHT22;46574;52.818;6.516;2023-08-24T04:24:06;15.70;99.90
60723;DHT22;46574;52.818;6.516;2023-08-24T04:26:32;15.70;99.90
60723;DHT22;46574;52.818;6.516;2023-08-24T04:28:58;15.70;99.90
60723;DHT22;46574;52.818;6.516;2023-08-24T04:31:23;15.70;99.90
60723;DHT22;46574;52.818;6.516;2023-08-24T04:33:49;15.70;99.90
60723;DHT22;46574;52.818;6.516;2023-08-24T04:36:15;15.70;99.90
60723;DHT22;46574;52.818;6.516;2023-08-24T04:38:40;15.70;99.90
60723;DHT22;46574;52.818;6.516;2023-08-24T04:41:08;15.70;99.90
60723;DHT22;46574;52.818;6.516;2023-08-24T04:43:34;15.70;99.90
60723;DHT22;46574;52.818;6.516;2023-08-24T04:46:02;15.70;99.90
60723;DHT22;46574;52.818;6.516;2023-08-24T04:48:28;15.70;99.90
60723;DHT22;46574;52.818;6.516;2023-08-24T04:51:02;15.70;99.90
60723;DHT22;46574;52.818;6.516;2023-08-24T04:53:29;15.70;99.90
60723;DHT22;46574;52.818;6.516;2023-08-24T04:55:54;15.80;99.90
60723;DHT22;46574;52.818;6.516;2023-08-24T04:58:20;15.80;99.90
60723;DHT22;46574;52.818;6.516;2023-08-24T05:00:46;15.90;99.90
60723;DHT22;46574;52.818;6.516;2023-08-24T05:03:14;15.90;99.90
60723;DHT22;46574;52.818;6.516;2023-08-24T05:05:40;16.00;99.90
60723;DHT22;46574;52.818;6.516;2023-08-24T05:08:06;16.00;99.90
60723;DHT22;46574;52.818;6.516;2023-08-24T05:10:35;16.10;99.90
60723;DHT22;46574;52.818;6.516;2023-08-24T05:13:01;16.10;99.90
60723;DHT22;46574;52.818;6.516;2023-08-24T05:15:27;16.10;99.90
60723;DHT22;46574;52.818;6.516;2023-08-24T05:17:52;16.10;99.90
60723;DHT22;46574;52.818;6.516;2023-08-24T05:20:28;16.10;99.90
60723;DHT22;46574;52.818;6.516;2023-08-24T05:22:54;16.20;99.90
60723;DHT22;46574;52.818;6.516;2023-08-24T05:25:23;16.20;99.90
60723;DHT22;46574;52.818;6.516;2023-08-24T05:27:49;16.20;99.90
60723;DHT22;46574;52.818;6.516;2023-08-24T05:30:15;16.30;99.90
60723;DHT22;46574;52.818;6.516;2023-08-24T05:32:41;16.30;99.90
60723;DHT22;46574;52.818;6.516;2023-08-24T05:35:07;16.30;99.90
60723;DHT22;46574;52.818;6.516;2023-08-24T05:37:33;16.30;99.90
60723;DHT22;46574;52.818;6.516;2023-08-24T05:40:02;16.30;99.90
60723;DHT22;46574;52.818;6.516;2023-08-24T05:42:28;16.30;99.90
60723;DHT22;46574;52.818;6.516;2023-08-24T05:44:54;16.40;99.90
60723;DHT22;46574;52.818;6.516;2023-08-24T05:47:20;16.40;99.90
60723;DHT22;46574;52.818;6.516;2023-08-24T05:49:46;16.50;99.90
60723;DHT22;46574;52.818;6.516;2023-08-24T05:52:11;16.50;99.90
60723;DHT22;46574;52.818;6.516;2023-08-24T05:54:37;16.50;99.90
60723;DHT22;46574;52.818;6.516;2023-08-24T05:57:03;16.60;99.90
60723;DHT22;46574;52.818;6.516;2023-08-24T05:59:30;16.70;99.90
60723;DHT22;46574;52.818;6.516;2023-08-24T06:01:55;16.70;99.90
60723;DHT22;46574;52.818;6.516;2023-08-24T06:04:21;16.80;99.90
60723;DHT22;46574;52.818;6.516;2023-08-24T06:06:47;16.90;99.90
60723;DHT22;46574;52.818;6.516;2023-08-24T06:09:12;16.90;99.90
60723;DHT22;46574;52.818;6.516;2023-08-24T06:11:38;17.00;99.90
60723;DHT22;46574;52.818;6.516;2023-08-24T06:14:06;17.10;99.90
60723;DHT22;46574;52.818;6.516;2023-08-24T06:16:32;17.20;99.90
60723;DHT22;46574;52.818;6.516;2023-08-24T06:18:57;17.30;99.90
60723;DHT22;46574;52.818;6.516;2023-08-24T06:21:23;17.30;99.90
60723;DHT22;46574;52.818;6.516;2023-08-24T06:23:49;17.30;99.90
60723;DHT22;46574;52.818;6.516;2023-08-24T06:26:15;17.40;99.90
60723;DHT22;46574;52.818;6.516;2023-08-24T06:28:40;17.40;99.90
60723;DHT22;46574;52.818;6.516;2023-08-24T06:31:06;17.50;99.90
60723;DHT22;46574;52.818;6.516;2023-08-24T06:33:35;17.60;99.90
60723;DHT22;46574;52.818;6.516;2023-08-24T06:36:02;17.70;99.90
60723;DHT22;46574;52.818;6.516;2023-08-24T06:38:28;17.80;99.90
60723;DHT22;46574;52.818;6.516;2023-08-24T06:40:54;17.90;99.90
60723;DHT22;46574;52.818;6.516;2023-08-24T06:43:20;18.00;99.90
60723;DHT22;46574;52.818;6.516;2023-08-24T06:45:46;18.10;99.90
60723;DHT22;46574;52.818;6.516;2023-08-24T06:48:12;18.10;99.90
60723;DHT22;46574;52.818;6.516;2023-08-24T06:50:37;18.20;99.90
60723;DHT22;46574;52.818;6.516;2023-08-24T06:53:04;18.20;99.90
60723;DHT22;46574;52.818;6.516;2023-08-24T06:55:30;18.30;99.90
60723;DHT22;46574;52.818;6.516;2023-08-24T06:57:56;18.40;99.90
60723;DHT22;46574;52.818;6.516;2023-08-24T07:00:22;18.40;99.90
60723;DHT22;46574;52.818;6.516;2023-08-24T07:02:49;18.50;99.90
60723;DHT22;46574;52.818;6.516;2023-08-24T07:05:15;18.60;99.90
60723;DHT22;46574;52.818;6.516;2023-08-24T07:07:44;18.60;99.90
60723;DHT22;46574;52.818;6.516;2023-08-24T07:10:10;18.70;99.90
60723;DHT22;46574;52.818;6.516;2023-08-24T07:12:35;18.80;99.90
60723;DHT22;46574;52.818;6.516;2023-08-24T07:15:02;18.80;99.90
60723;DHT22;46574;52.818;6.516;2023-08-24T07:17:28;18.90;99.90
60723;DHT22;46574;52.818;6.516;2023-08-24T07:19:54;19.00;99.90
60723;DHT22;46574;52.818;6.516;2023-08-24T07:22:22;19.00;99.90
60723;DHT22;46574;52.818;6.516;2023-08-24T07:24:48;19.10;99.90
60723;DHT22;46574;52.818;6.516;2023-08-24T07:27:18;19.20;99.90
60723;DHT22;46574;52.818;6.516;2023-08-24T07:29:44;19.20;99.90
60723;DHT22;46574;52.818;6.516;2023-08-24T07:32:10;19.30;99.90
60723;DHT22;46574;52.818;6.516;2023-08-24T07:34:35;19.40;99.90
60723;DHT22;46574;52.818;6.516;2023-08-24T07:37:01;19.50;99.90
60723;DHT22;46574;52.818;6.516;2023-08-24T07:39:27;19.60;99.90
60723;DHT22;46574;52.818;6.516;2023-08-24T07:41:53;19.60;99.90
60723;DHT22;46574;52.818;6.516;2023-08-24T07:44:18;19.70;99.90
60723;DHT22;46574;52.818;6.516;2023-08-24T07:46:44;19.80;99.90
60723;DHT22;46574;52.818;6.516;2023-08-24T07:49:10;19.90;99.90
60723;DHT22;46574;52.818;6.516;2023-08-24T07:51:35;20.00;99.90
60723;DHT22;46574;52.818;6.516;2023-08-24T07:54:01;20.00;99.90
60723;DHT22;46574;52.818;6.516;2023-08-24T07:56:29;20.10;99.90
60723;DHT22;46574;52.818;6.516;2023-08-24T07:58:55;20.10;99.90
60723;DHT22;46574;52.818;6.516;2023-08-24T08:01:21;20.20;99.90
60723;DHT22;46574;52.818;6.516;2023-08-24T08:03:47;20.30;99.90
60723;DHT22;46574;52.818;6.516;2023-08-24T08:06:12;20.30;99.90
60723;DHT22;46574;52.818;6.516;2023-08-24T08:08:39;20.40;99.90
60723;DHT22;46574;52.818;6.516;2023-08-24T08:11:05;20.50;99.90
60723;DHT22;46574;52.818;6.516;2023-08-24T08:13:30;20.50;99.90
60723;DHT22;46574;52.818;6.516;2023-08-24T08:16:06;20.60;99.90
60723;DHT22;46574;52.818;6.516;2023-08-24T08:18:33;20.70;99.90
60723;DHT22;46574;52.818;6.516;2023-08-24T08:20:59;20.70;99.90
60723;DHT22;46574;52.818;6.516;2023-08-24T08:23:25;20.80;99.90
60723;DHT22;46574;52.818;6.516;2023-08-24T08:25:51;20.90;99.90
60723;DHT22;46574;52.818;6.516;2023-08-24T08:28:17;21.00;99.90
60723;DHT22;46574;52.818;6.516;2023-08-24T08:30:44;21.10;99.90
60723;DHT22;46574;52.818;6.516;2023-08-24T08:33:10;21.20;99.90
60723;DHT22;46574;52.818;6.516;2023-08-24T08:35:37;21.30;99.90
60723;DHT22;46574;52.818;6.516;2023-08-24T08:38:02;21.50;99.90
60723;DHT22;46574;52.818;6.516;2023-08-24T08:40:30;21.60;99.90
60723;DHT22;46574;52.818;6.516;2023-08-24T08:42:57;21.70;99.90
60723;DHT22;46574;52.818;6.516;2023-08-24T08:45:25;21.80;99.90
60723;DHT22;46574;52.818;6.516;2023-08-24T08:47:57;21.90;99.90
60723;DHT22;46574;52.818;6.516;2023-08-24T08:50:25;22.10;99.90
60723;DHT22;46574;52.818;6.516;2023-08-24T08:52:51;22.10;99.90
60723;DHT22;46574;52.818;6.516;2023-08-24T08:55:17;22.30;99.90
60723;DHT22;46574;52.818;6.516;2023-08-24T08:57:44;22.40;99.90
60723;DHT22;46574;52.818;6.516;2023-08-24T09:00:11;22.50;99.90
60723;DHT22;46574;52.818;6.516;2023-08-24T09:02:42;22.60;99.90
60723;DHT22;46574;52.818;6.516;2023-08-24T09:05:09;22.70;99.90
60723;DHT22;46574;52.818;6.516;2023-08-24T09:07:35;22.80;99.90
60723;DHT22;46574;52.818;6.516;2023-08-24T09:10:02;22.80;99.90
60723;DHT22;46574;52.818;6.516;2023-08-24T09:12:33;22.90;99.90
60723;DHT22;46574;52.818;6.516;2023-08-24T09:14:59;22.90;99.90
60723;DHT22;46574;52.818;6.516;2023-08-24T09:17:24;22.90;99.90
60723;DHT22;46574;52.818;6.516;2023-08-24T09:19:52;23.00;99.90
60723;DHT22;46574;52.818;6.516;2023-08-24T09:22:19;23.10;99.90
60723;DHT22;46574;52.818;6.516;2023-08-24T09:24:45;23.20;99.90
60723;DHT22;46574;52.818;6.516;2023-08-24T09:27:20;23.30;99.90
60723;DHT22;46574;52.818;6.516;2023-08-24T09:29:52;23.40;99.90
60723;DHT22;46574;52.818;6.516;2023-08-24T09:32:24;23.50;99.90
60723;DHT22;46574;52.818;6.516;2023-08-24T09:34:52;23.60;99.90
60723;DHT22;46574;52.818;6.516;2023-08-24T09:37:18;23.50;99.90
60723;DHT22;46574;52.818;6.516;2023-08-24T09:39:45;23.50;99.90
60723;DHT22;46574;52.818;6.516;2023-08-24T09:42:12;23.40;99.90
60723;DHT22;46574;52.818;6.516;2023-08-24T09:44:43;23.40;99.90
60723;DHT22;46574;52.818;6.516;2023-08-24T09:47:12;23.40;99.90
60723;DHT22;46574;52.818;6.516;2023-08-24T09:49:38;23.30;99.90
60723;DHT22;46574;52.818;6.516;2023-08-24T09:52:08;23.30;99.90
60723;DHT22;46574;52.818;6.516;2023-08-24T09:54:37;23.20;99.90
60723;DHT22;46574;52.818;6.516;2023-08-24T09:57:05;23.20;99.90
60723;DHT22;46574;52.818;6.516;2023-08-24T09:59:32;23.10;99.90
60723;DHT22;46574;52.818;6.516;2023-08-24T10:02:00;23.10;99.90
60723;DHT22;46574;52.818;6.516;2023-08-24T10:04:33;23.10;99.90
60723;DHT22;46574;52.818;6.516;2023-08-24T10:07:09;23.10;99.90
60723;DHT22;46574;52.818;6.516;2023-08-24T10:09:52;23.00;99.90
60723;DHT22;46574;52.818;6.516;2023-08-24T10:12:20;23.00;99.90
60723;DHT22;46574;52.818;6.516;2023-08-24T10:14:53;23.00;99.90
60723;DHT22;46574;52.818;6.516;2023-08-24T10:17:23;23.00;99.90
60723;DHT22;46574;52.818;6.516;2023-08-24T10:19:51;23.00;99.90
60723;DHT22;46574;52.818;6.516;2023-08-24T10:22:19;23.00;99.90
60723;DHT22;46574;52.818;6.516;2023-08-24T10:24:47;23.00;99.90
60723;DHT22;46574;52.818;6.516;2023-08-24T10:27:14;23.00;99.90
60723;DHT22;46574;52.818;6.516;2023-08-24T10:29:40;23.00;99.90
60723;DHT22;46574;52.818;6.516;2023-08-24T10:32:06;23.00;99.90
60723;DHT22;46574;52.818;6.516;2023-08-24T10:34:33;23.00;99.90
60723;DHT22;46574;52.818;6.516;2023-08-24T10:37:09;23.00;99.90
60723;DHT22;46574;52.818;6.516;2023-08-24T10:39:38;23.00;99.90
60723;DHT22;46574;52.818;6.516;2023-08-24T10:42:11;23.00;99.90
60723;DHT22;46574;52.818;6.516;2023-08-24T10:44:38;22.90;99.90
60723;DHT22;46574;52.818;6.516;2023-08-24T10:47:11;22.90;99.90
60723;DHT22;46574;52.818;6.516;2023-08-24T10:49:37;23.00;99.90
60723;DHT22;46574;52.818;6.516;2023-08-24T10:54:49;23.00;99.90
60723;DHT22;46574;52.818;6.516;2023-08-24T10:57:38;23.00;99.90
60723;DHT22;46574;52.818;6.516;2023-08-24T11:00:10;23.10;99.90
60723;DHT22;46574;52.818;6.516;2023-08-24T11:02:47;23.10;99.90
60723;DHT22;46574;52.818;6.516;2023-08-24T11:05:27;23.10;99.90
60723;DHT22;46574;52.818;6.516;2023-08-24T11:08:02;23.20;99.90
60723;DHT22;46574;52.818;6.516;2023-08-24T11:10:44;23.30;99.90
60723;DHT22;46574;52.818;6.516;2023-08-24T11:13:17;23.30;99.90
60723;DHT22;46574;52.818;6.516;2023-08-24T11:15:46;23.40;99.90
60723;DHT22;46574;52.818;6.516;2023-08-24T11:20:45;23.50;99.90
60723;DHT22;46574;52.818;6.516;2023-08-24T11:23:12;23.50;99.90
60723;DHT22;46574;52.818;6.516;2023-08-24T11:25:38;23.60;99.90
60723;DHT22;46574;52.818;6.516;2023-08-24T11:28:04;23.60;99.90
60723;DHT22;46574;52.818;6.516;2023-08-24T11:30:34;23.70;99.90
60723;DHT22;46574;52.818;6.516;2023-08-24T11:33:00;23.70;99.90
60723;DHT22;46574;52.818;6.516;2023-08-24T11:35:26;23.90;99.90
60723;DHT22;46574;52.818;6.516;2023-08-24T11:37:53;23.90;99.90
60723;DHT22;46574;52.818;6.516;2023-08-24T11:40:19;24.00;99.90
60723;DHT22;46574;52.818;6.516;2023-08-24T11:42:58;24.00;99.90
60723;DHT22;46574;52.818;6.516;2023-08-24T11:45:24;24.10;99.90
60723;DHT22;46574;52.818;6.516;2023-08-24T11:47:55;24.10;99.90
60723;DHT22;46574;52.818;6.516;2023-08-24T11:50:23;24.10;99.90
60723;DHT22;46574;52.818;6.516;2023-08-24T11:52:49;24.10;99.90
60723;DHT22;46574;52.818;6.516;2023-08-24T11:55:14;24.10;99.90
60723;DHT22;46574;52.818;6.516;2023-08-24T11:57:41;24.10;99.90
60723;DHT22;46574;52.818;6.516;2023-08-24T12:00:08;24.10;99.90
60723;DHT22;46574;52.818;6.516;2023-08-24T12:02:34;24.10;99.90
60723;DHT22;46574;52.818;6.516;2023-08-24T12:05:01;24.10;99.90
60723;DHT22;46574;52.818;6.516;2023-08-24T12:07:30;24.00;99.90
60723;DHT22;46574;52.818;6.516;2023-08-24T12:10:00;24.00;99.90
60723;DHT22;46574;52.818;6.516;2023-08-24T12:12:27;24.00;99.90
60723;DHT22;46574;52.818;6.516;2023-08-24T12:14:53;24.00;99.90
60723;DHT22;46574;52.818;6.516;2023-08-24T12:17:20;24.10;99.90
60723;DHT22;46574;52.818;6.516;2023-08-24T12:19:59;24.10;99.90
60723;DHT22;46574;52.818;6.516;2023-08-24T12:22:25;24.20;99.90
60723;DHT22;46574;52.818;6.516;2023-08-24T12:24:51;24.20;99.90
60723;DHT22;46574;52.818;6.516;2023-08-24T12:27:18;24.30;99.90
60723;DHT22;46574;52.818;6.516;2023-08-24T12:29:46;24.30;99.90
60723;DHT22;46574;52.818;6.516;2023-08-24T12:32:12;24.30;99.90
60723;DHT22;46574;52.818;6.516;2023-08-24T12:34:37;24.40;99.90
60723;DHT22;46574;52.818;6.516;2023-08-24T12:37:03;24.40;99.90
60723;DHT22;46574;52.818;6.516;2023-08-24T12:39:38;24.40;99.90
60723;DHT22;46574;52.818;6.516;2023-08-24T12:42:05;24.50;99.90
60723;DHT22;46574;52.818;6.516;2023-08-24T12:44:31;24.50;99.90
60723;DHT22;46574;52.818;6.516;2023-08-24T12:46:58;24.50;99.90
60723;DHT22;46574;52.818;6.516;2023-08-24T12:49:24;24.50;99.90
60723;DHT22;46574;52.818;6.516;2023-08-24T12:51:50;24.60;99.90
60723;DHT22;46574;52.818;6.516;2023-08-24T12:54:16;24.60;99.90
60723;DHT22;46574;52.818;6.516;2023-08-24T12:56:43;24.70;99.90
60723;DHT22;46574;52.818;6.516;2023-08-24T12:59:09;24.70;99.90
60723;DHT22;46574;52.818;6.516;2023-08-24T13:01:35;24.70;99.90
60723;DHT22;46574;52.818;6.516;2023-08-24T13:04:00;24.70;99.90
60723;DHT22;46574;52.818;6.516;2023-08-24T13:06:26;24.70;99.90
60723;DHT22;46574;52.818;6.516;2023-08-24T13:08:55;24.80;99.90
60723;DHT22;46574;52.818;6.516;2023-08-24T13:11:21;24.90;99.90
60723;DHT22;46574;52.818;6.516;2023-08-24T13:13:47;24.90;99.90
60723;DHT22;46574;52.818;6.516;2023-08-24T13:16:13;24.90;99.90
60723;DHT22;46574;52.818;6.516;2023-08-24T13:18:39;25.00;99.90
60723;DHT22;46574;52.818;6.516;2023-08-24T13:21:04;25.00;99.90
60723;DHT22;46574;52.818;6.516;2023-08-24T13:23:30;24.90;99.90
60723;DHT22;46574;52.818;6.516;2023-08-24T13:25:59;24.90;99.90
60723;DHT22;46574;52.818;6.516;2023-08-24T13:28:25;24.90;99.90
60723;DHT22;46574;52.818;6.516;2023-08-24T13:30:50;24.90;99.90
60723;DHT22;46574;52.818;6.516;2023-08-24T13:33:16;24.90;99.90
60723;DHT22;46574;52.818;6.516;2023-08-24T13:35:43;24.90;99.90
60723;DHT22;46574;52.818;6.516;2023-08-24T13:38:09;24.90;99.90
60723;DHT22;46574;52.818;6.516;2023-08-24T13:40:35;24.90;99.90
60723;DHT22;46574;52.818;6.516;2023-08-24T13:43:00;25.00;99.90
60723;DHT22;46574;52.818;6.516;2023-08-24T13:45:26;25.00;99.90
60723;DHT22;46574;52.818;6.516;2023-08-24T13:47:52;25.00;99.90
60723;DHT22;46574;52.818;6.516;2023-08-24T13:50:17;25.00;99.90
60723;DHT22;46574;52.818;6.516;2023-08-24T13:52:44;25.00;99.90
60723;DHT22;46574;52.818;6.516;2023-08-24T13:55:09;24.90;99.90
60723;DHT22;46574;52.818;6.516;2023-08-24T13:57:35;24.90;99.90
60723;DHT22;46574;52.818;6.516;2023-08-24T14:00:01;24.80;99.90
60723;DHT22;46574;52.818;6.516;2023-08-24T14:02:29;24.70;99.90
60723;DHT22;46574;52.818;6.516;2023-08-24T14:04:55;24.60;99.90
60723;DHT22;46574;52.818;6.516;2023-08-24T14:07:23;24.60;99.90
60723;DHT22;46574;52.818;6.516;2023-08-24T14:09:49;24.50;99.90
60723;DHT22;46574;52.818;6.516;2023-08-24T14:12:15;24.40;99.90
60723;DHT22;46574;52.818;6.516;2023-08-24T14:14:40;24.30;99.90
60723;DHT22;46574;52.818;6.516;2023-08-24T14:17:06;24.30;99.90
60723;DHT22;46574;52.818;6.516;2023-08-24T14:19:32;24.20;99.90
60723;DHT22;46574;52.818;6.516;2023-08-24T14:21:57;24.20;99.90
60723;DHT22;46574;52.818;6.516;2023-08-24T14:24:23;24.10;99.90
60723;DHT22;46574;52.818;6.516;2023-08-24T14:26:49;24.10;99.90
60723;DHT22;46574;52.818;6.516;2023-08-24T14:29:15;24.00;99.90
60723;DHT22;46574;52.818;6.516;2023-08-24T14:31:41;24.00;99.90
60723;DHT22;46574;52.818;6.516;2023-08-24T14:34:07;24.00;99.90
60723;DHT22;46574;52.818;6.516;2023-08-24T14:36:32;23.90;99.90
60723;DHT22;46574;52.818;6.516;2023-08-24T14:38:58;23.90;99.90
60723;DHT22;46574;52.818;6.516;2023-08-24T14:41:24;23.80;99.90
60723;DHT22;46574;52.818;6.516;2023-08-24T14:43:50;23.80;99.90
60723;DHT22;46574;52.818;6.516;2023-08-24T14:46:15;23.70;99.90
60723;DHT22;46574;52.818;6.516;2023-08-24T14:48:41;23.60;99.90
60723;DHT22;46574;52.818;6.516;2023-08-24T14:51:07;23.60;99.90
60723;DHT22;46574;52.818;6.516;2023-08-24T14:53:33;23.50;99.90
60723;DHT22;46574;52.818;6.516;2023-08-24T14:55:59;23.40;99.90
60723;DHT22;46574;52.818;6.516;2023-08-24T14:58:26;23.40;99.90
60723;DHT22;46574;52.818;6.516;2023-08-24T15:00:53;23.30;99.90
60723;DHT22;46574;52.818;6.516;2023-08-24T15:03:21;23.30;99.90
60723;DHT22;46574;52.818;6.516;2023-08-24T15:06:00;23.20;99.90
60723;DHT22;46574;52.818;6.516;2023-08-24T15:08:27;23.10;99.90
60723;DHT22;46574;52.818;6.516;2023-08-24T15:10:57;23.00;99.90
60723;DHT22;46574;52.818;6.516;2023-08-24T15:13:24;23.00;99.90
60723;DHT22;46574;52.818;6.516;2023-08-24T15:15:53;23.00;99.90
60723;DHT22;46574;52.818;6.516;2023-08-24T15:18:19;23.00;99.90
60723;DHT22;46574;52.818;6.516;2023-08-24T15:20:45;23.00;99.90
60723;DHT22;46574;52.818;6.516;2023-08-24T15:23:30;23.00;99.90
60723;DHT22;46574;52.818;6.516;2023-08-24T15:25:58;23.00;99.90
60723;DHT22;46574;52.818;6.516;2023-08-24T15:28:24;23.00;99.90
60723;DHT22;46574;52.818;6.516;2023-08-24T15:30:51;23.10;99.90
60723;DHT22;46574;52.818;6.516;2023-08-24T15:33:18;23.10;99.90
60723;DHT22;46574;52.818;6.516;2023-08-24T15:35:44;23.10;99.90
60723;DHT22;46574;52.818;6.516;2023-08-24T15:38:10;23.10;99.90